createdAt,value
2019-04-05T00:00:51.835Z,10.27
2019-04-05T00:03:23.521Z,11.00
2019-04-05T00:05:55.846Z,10.80
2019-04-05T00:08:27.464Z,10.67
2019-04-05T00:10:58.999Z,10.87
2019-04-05T00:13:30.424Z,11.03
2019-04-05T00:16:02.194Z,11.10
2019-04-05T00:18:33.757Z,11.77
2019-04-05T00:21:05.193Z,11.50
2019-04-05T00:23:36.629Z,11.47
2019-04-05T00:26:08.049Z,10.53
2019-04-05T00:28:39.593Z,10.63
2019-04-05T00:31:11.101Z,11.47
2019-04-05T00:33:42.558Z,10.70
2019-04-05T00:36:14.024Z,10.73
2019-04-05T00:38:45.606Z,10.70
2019-04-05T00:41:17.052Z,11.53
2019-04-05T00:43:48.568Z,9.83
2019-04-05T00:46:20.079Z,11.50
2019-04-05T00:48:51.559Z,10.23
2019-04-05T00:51:23.106Z,11.50
2019-04-05T00:53:54.514Z,10.77
2019-04-05T00:56:25.955Z,10.57
2019-04-05T00:58:57.524Z,10.60
2019-04-05T01:01:29.002Z,11.00
2019-04-05T01:04:00.441Z,10.77
2019-04-05T01:06:33.198Z,10.87
2019-04-05T01:09:06.895Z,11.50
2019-04-05T01:11:38.360Z,11.00
2019-04-05T01:14:09.823Z,10.63
2019-04-05T01:16:41.225Z,11.40
2019-04-05T01:19:14.267Z,11.37
2019-04-05T01:21:48.505Z,10.33
2019-04-05T01:24:21.393Z,10.83
2019-04-05T01:26:54.437Z,11.50
2019-04-05T01:29:26.001Z,11.10
2019-04-05T01:31:57.545Z,11.00
2019-04-05T01:34:29.073Z,11.07
2019-04-05T01:37:01.070Z,10.57
2019-04-05T01:39:32.689Z,11.73
2019-04-05T01:42:04.203Z,11.70
2019-04-05T01:44:37.662Z,11.70
2019-04-05T01:47:09.085Z,11.13
2019-04-05T01:49:40.561Z,11.77
2019-04-05T01:52:13.301Z,11.87
2019-04-05T01:54:44.916Z,11.07
2019-04-05T01:57:16.512Z,12.40
2019-04-05T01:59:47.993Z,11.77
2019-04-05T02:02:19.412Z,11.73
2019-04-05T02:04:52.774Z,11.53
2019-04-05T02:07:25.325Z,12.37
2019-04-05T02:09:57.172Z,10.90
2019-04-05T02:12:28.653Z,11.33
2019-04-05T02:15:00.161Z,12.30
2019-04-05T02:17:31.659Z,12.83
2019-04-05T02:20:03.097Z,12.23
2019-04-05T02:22:34.579Z,12.33
2019-04-05T02:25:06.482Z,12.00
2019-04-05T02:27:37.976Z,12.53
2019-04-05T02:30:09.567Z,11.60
2019-04-05T02:32:41.085Z,12.00
2019-04-05T02:35:13.019Z,11.93
2019-04-05T02:37:44.583Z,12.17
2019-04-05T02:40:16.970Z,12.40
2019-04-05T02:42:51.869Z,11.90
2019-04-05T02:45:24.415Z,11.90
2019-04-05T02:47:59.865Z,11.97
2019-04-05T02:50:34.032Z,12.30
2019-04-05T02:53:07.757Z,12.57
2019-04-05T02:55:41.300Z,11.70
2019-04-05T02:58:13.964Z,11.93
2019-04-05T03:00:46.157Z,12.53
2019-04-05T03:03:17.806Z,12.50
2019-04-05T03:05:49.283Z,12.23
2019-04-05T03:08:21.101Z,12.03
2019-04-05T03:11:04.285Z,12.17
2019-04-05T03:13:41.016Z,11.97
2019-04-05T03:16:17.460Z,12.60
2019-04-05T03:18:56.182Z,13.03
2019-04-05T03:21:29.396Z,12.93
2019-04-05T03:24:03.735Z,12.53
2019-04-05T03:26:38.764Z,12.20
2019-04-05T03:29:10.880Z,13.10
2019-04-05T03:31:42.717Z,13.27
2019-04-05T03:34:14.218Z,13.67
2019-04-05T03:36:46.185Z,13.43
2019-04-05T03:39:17.722Z,13.57
2019-04-05T03:41:49.223Z,14.10
2019-04-05T03:44:22.965Z,13.77
2019-04-05T03:46:57.753Z,14.33
2019-04-05T03:49:29.496Z,13.67
2019-04-05T03:52:01.077Z,14.13
2019-04-05T03:54:32.665Z,12.30
2019-04-05T03:57:04.648Z,13.87
2019-04-05T03:59:36.371Z,13.43
2019-04-05T04:02:07.865Z,13.30
2019-04-05T04:04:39.439Z,13.80
2019-04-05T04:07:10.938Z,13.77
2019-04-05T04:09:42.702Z,13.77
2019-04-05T04:12:14.455Z,14.00
2019-04-05T04:14:47.185Z,13.90
2019-04-05T04:17:18.777Z,14.60
2019-04-05T04:19:50.323Z,14.03
2019-04-05T04:22:29.179Z,13.90
2019-04-05T04:25:03.220Z,13.83
2019-04-05T04:27:35.063Z,12.87
2019-04-05T04:30:06.953Z,13.80
2019-04-05T04:32:38.437Z,14.07
2019-04-05T04:35:09.858Z,15.07
2019-04-05T04:37:41.292Z,14.57
2019-04-05T04:40:13.070Z,14.43
2019-04-05T04:42:44.769Z,15.47
2019-04-05T04:45:18.726Z,14.10
2019-04-05T04:47:50.602Z,15.87
2019-04-05T04:50:23.023Z,15.07
2019-04-05T04:52:55.046Z,14.93
2019-04-05T04:55:29.493Z,14.20
2019-04-05T04:58:01.358Z,16.10
2019-04-05T05:00:32.822Z,15.57
2019-04-05T05:03:04.451Z,15.37
2019-04-05T05:05:36.582Z,14.93
2019-04-05T05:08:08.838Z,14.90
2019-04-05T05:10:40.399Z,15.70
2019-04-05T05:13:12.347Z,15.40
2019-04-05T05:15:45.330Z,15.13
2019-04-05T05:18:17.652Z,15.30
2019-04-05T05:20:49.389Z,15.10
2019-04-05T05:23:20.825Z,15.50
2019-04-05T05:25:52.522Z,15.13
2019-04-05T05:28:24.166Z,15.50
2019-04-05T05:30:55.688Z,15.23
2019-04-05T05:33:27.196Z,16.10
2019-04-05T05:35:58.897Z,14.97
2019-04-05T05:38:30.325Z,15.03
2019-04-05T05:41:01.881Z,13.57
2019-04-05T05:43:33.497Z,15.73
2019-04-05T05:46:05.000Z,15.90
2019-04-05T05:48:40.289Z,16.17
2019-04-05T05:51:12.374Z,14.60
2019-04-05T05:53:44.760Z,15.63
2019-04-05T05:56:17.793Z,15.60
2019-04-05T05:58:55.379Z,16.87
2019-04-05T06:01:29.210Z,15.40
2019-04-05T06:04:00.718Z,16.30
2019-04-05T06:06:32.127Z,15.17
2019-04-05T06:09:05.166Z,14.97
2019-04-05T06:11:36.602Z,14.97
2019-04-05T06:14:08.165Z,15.43
2019-04-05T06:16:46.221Z,15.17
2019-04-05T06:19:12.856Z,16.33
2019-04-05T06:21:44.379Z,14.33
2019-04-05T06:24:15.940Z,14.20
2019-04-05T06:26:47.448Z,14.93
2019-04-05T06:29:18.962Z,15.13
2019-04-05T06:31:50.444Z,15.03
2019-04-05T06:34:22.174Z,15.67
2019-04-05T06:36:53.563Z,14.60
2019-04-05T06:39:26.000Z,16.20
2019-04-05T06:41:57.455Z,14.17
2019-04-05T06:44:28.996Z,13.90
2019-04-05T06:47:00.473Z,14.23
2019-04-05T06:49:32.492Z,14.80
2019-04-05T06:52:03.962Z,14.60
2019-04-05T06:54:36.517Z,14.23
2019-04-05T06:57:08.785Z,15.40
2019-04-05T06:59:40.189Z,15.63
2019-04-05T07:02:11.643Z,14.50
2019-04-05T07:04:43.181Z,13.50
2019-04-05T07:07:17.664Z,14.87
2019-04-05T07:09:47.829Z,14.10
2019-04-05T07:12:20.777Z,13.67
2019-04-05T07:14:56.116Z,14.03
2019-04-05T07:17:26.690Z,13.47
2019-04-05T07:19:58.486Z,13.30
2019-04-05T07:22:38.582Z,14.10
2019-04-05T07:25:03.291Z,13.03
2019-04-05T07:27:49.018Z,13.33
2019-04-05T07:30:21.163Z,13.20
2019-04-05T07:32:52.588Z,14.43
2019-04-05T07:35:33.399Z,15.50
2019-04-05T07:37:57.277Z,14.57
2019-04-05T07:40:28.867Z,14.37
2019-04-05T07:43:00.353Z,14.73
2019-04-05T07:45:31.951Z,16.10
2019-04-05T07:48:03.398Z,15.07
2019-04-05T07:50:34.945Z,15.47
2019-04-05T07:53:06.370Z,14.60
2019-04-05T07:55:37.882Z,15.60
2019-04-05T07:58:21.425Z,15.43
2019-04-05T08:00:54.893Z,15.63
2019-04-05T08:03:26.658Z,16.70
2019-04-05T08:05:58.105Z,15.63
2019-04-05T08:08:39.704Z,16.50
2019-04-05T08:11:23.123Z,16.00
2019-04-05T08:13:57.500Z,16.63
2019-04-05T08:16:29.031Z,16.13
2019-04-05T08:19:00.635Z,16.33
2019-04-05T08:21:32.064Z,17.40
2019-04-05T08:24:03.488Z,17.27
2019-04-05T08:26:35.081Z,16.40
2019-04-05T08:29:07.093Z,17.10
2019-04-05T08:31:38.548Z,17.57
2019-04-05T08:34:09.981Z,17.53
2019-04-05T08:36:41.390Z,18.03
2019-04-05T08:39:12.774Z,18.27
2019-04-05T08:41:44.338Z,18.10
2019-04-05T08:44:15.693Z,16.90
2019-04-05T08:46:47.205Z,18.23
2019-04-05T08:49:18.636Z,17.80
2019-04-05T08:51:50.089Z,19.60
2019-04-05T08:54:31.815Z,18.90
2019-04-05T08:56:54.654Z,19.23
2019-04-05T08:59:26.046Z,19.07
2019-04-05T09:01:57.434Z,20.77
2019-04-05T09:04:29.020Z,20.67
2019-04-05T09:07:00.496Z,20.67
2019-04-05T09:09:31.802Z,18.13
2019-04-05T09:12:03.409Z,18.77
2019-04-05T09:14:34.766Z,17.93
2019-04-05T09:17:06.196Z,17.77
2019-04-05T09:19:38.568Z,16.60
2019-04-05T09:22:10.056Z,17.07
2019-04-05T09:24:41.452Z,16.60
2019-04-05T09:27:12.925Z,17.33
2019-04-05T09:29:45.350Z,16.80
2019-04-05T09:32:16.907Z,15.97
2019-04-05T09:34:48.395Z,17.13
2019-04-05T09:37:19.970Z,16.57
2019-04-05T09:39:51.322Z,17.50
2019-04-05T09:42:22.716Z,17.67
2019-04-05T09:44:54.157Z,17.80
2019-04-05T09:47:25.628Z,17.93
2019-04-05T09:49:57.037Z,17.80
2019-04-05T09:52:28.543Z,17.67
2019-04-05T09:54:59.947Z,17.27
2019-04-05T09:57:31.445Z,17.93
2019-04-05T10:00:03.984Z,17.50
2019-04-05T10:02:35.853Z,17.17
2019-04-05T10:05:07.248Z,17.50
2019-04-05T10:07:48.718Z,16.87
2019-04-05T10:10:12.149Z,17.70
2019-04-05T10:12:43.657Z,17.90
2019-04-05T10:15:15.305Z,18.27
2019-04-05T10:17:47.230Z,17.47
2019-04-05T10:20:19.577Z,18.40
2019-04-05T10:22:51.029Z,18.13
2019-04-05T10:25:22.511Z,17.33
2019-04-05T10:27:53.989Z,18.90
2019-04-05T10:30:25.418Z,18.10
2019-04-05T10:32:56.892Z,18.27
2019-04-05T10:35:29.357Z,18.10
2019-04-05T10:38:00.852Z,17.60
2019-04-05T10:40:32.329Z,19.40
2019-04-05T10:43:04.021Z,18.97
2019-04-05T10:45:35.696Z,18.23
2019-04-05T10:48:07.153Z,18.10
2019-04-05T10:50:38.719Z,17.87
2019-04-05T10:53:10.175Z,17.93
2019-04-05T10:55:41.714Z,18.77
2019-04-05T10:58:13.262Z,19.37
2019-04-05T11:00:44.773Z,18.27
2019-04-05T11:03:16.421Z,18.50
2019-04-05T11:05:49.460Z,18.03
2019-04-05T11:08:20.995Z,18.47
2019-04-05T11:10:52.581Z,17.73
2019-04-05T11:13:24.292Z,19.10
2019-04-05T11:15:57.587Z,17.80
2019-04-05T11:18:30.631Z,17.30
2019-04-05T11:21:02.481Z,17.83
2019-04-05T11:23:34.287Z,18.20
2019-04-05T11:26:05.871Z,17.13
2019-04-05T11:28:37.621Z,16.97
2019-04-05T11:31:09.176Z,17.93
2019-04-05T11:33:42.021Z,17.83
2019-04-05T11:36:14.351Z,16.83
2019-04-05T11:38:50.048Z,16.80
2019-04-05T11:41:27.016Z,17.53
2019-04-05T11:44:00.709Z,17.77
2019-04-05T11:46:34.346Z,16.87
2019-04-05T11:49:06.845Z,17.10
2019-04-05T11:51:38.309Z,16.80
2019-04-05T11:54:11.767Z,16.87
2019-04-05T11:56:45.293Z,16.30
2019-04-05T11:59:19.720Z,18.30
2019-04-05T12:01:56.000Z,16.97
2019-04-05T12:04:27.517Z,16.33
2019-04-05T12:07:01.084Z,16.30
2019-04-05T12:09:32.709Z,17.60
2019-04-05T12:12:07.310Z,16.67
2019-04-05T12:14:38.931Z,17.43
2019-04-05T12:17:10.361Z,16.33
2019-04-05T12:19:43.024Z,15.70
2019-04-05T12:22:15.905Z,15.43
2019-04-05T12:24:47.737Z,16.60
2019-04-05T12:27:20.825Z,15.40
2019-04-05T12:29:52.571Z,16.03
2019-04-05T12:32:33.440Z,14.00
2019-04-05T12:35:00.420Z,13.77
2019-04-05T12:37:31.929Z,14.33
2019-04-05T12:40:10.244Z,15.60
2019-04-05T12:42:46.681Z,14.80
2019-04-05T12:45:20.671Z,14.73
2019-04-05T12:47:55.010Z,14.07
2019-04-05T12:50:26.630Z,13.97
2019-04-05T12:52:58.031Z,13.80
2019-04-05T12:55:29.846Z,14.97
2019-04-05T12:58:01.338Z,13.03
2019-04-05T13:00:32.872Z,12.97
2019-04-05T13:03:04.885Z,13.60
2019-04-05T13:05:36.509Z,13.73
2019-04-05T13:08:08.161Z,15.17
2019-04-05T13:10:41.096Z,14.17
2019-04-05T13:13:12.506Z,13.00
2019-04-05T13:15:44.138Z,13.70
2019-04-05T13:18:15.528Z,11.40
2019-04-05T13:20:47.161Z,10.57
2019-04-05T13:23:18.769Z,12.17
2019-04-05T13:25:50.887Z,11.90
2019-04-05T13:28:22.470Z,12.73
2019-04-05T13:30:55.573Z,11.80
2019-04-05T13:33:29.053Z,12.20
2019-04-05T13:36:00.611Z,12.60
2019-04-05T13:38:32.107Z,12.70
2019-04-05T13:41:03.680Z,12.90
2019-04-05T13:43:35.549Z,13.67
2019-04-05T13:46:07.176Z,12.67
2019-04-05T13:48:40.113Z,12.27
2019-04-05T13:51:12.891Z,13.70
2019-04-05T13:53:44.401Z,11.70
2019-04-05T13:56:15.788Z,13.07
2019-04-05T13:58:47.221Z,12.57
2019-04-05T14:01:20.636Z,12.97
2019-04-05T14:03:51.870Z,13.47
2019-04-05T14:06:23.311Z,13.80
2019-04-05T14:08:54.724Z,13.10
2019-04-05T14:11:26.342Z,13.17
2019-04-05T14:13:57.865Z,13.70
2019-04-05T14:16:29.505Z,13.10
2019-04-05T14:19:01.055Z,13.30
2019-04-05T14:21:40.172Z,12.73
2019-04-05T14:24:06.625Z,13.07
2019-04-05T14:26:38.116Z,12.50
2019-04-05T14:29:09.649Z,12.40
2019-04-05T14:31:41.097Z,13.77
2019-04-05T14:34:12.513Z,11.50
2019-04-05T14:36:44.077Z,11.63
2019-04-05T14:39:15.536Z,11.07
2019-04-05T14:41:47.238Z,11.40
2019-04-05T14:44:18.670Z,10.83
2019-04-05T14:46:50.332Z,10.43
2019-04-05T14:49:22.049Z,11.27
2019-04-05T14:51:56.479Z,11.80
2019-04-05T14:54:26.870Z,11.43
2019-04-05T14:57:02.387Z,10.70
2019-04-05T14:59:32.909Z,10.87
2019-04-05T15:02:04.536Z,11.50
2019-04-05T15:04:37.167Z,11.60
2019-04-05T15:07:08.764Z,10.83
2019-04-05T15:09:40.494Z,11.03
2019-04-05T15:14:50.049Z,11.67
2019-04-05T15:17:25.088Z,10.37
2019-04-05T15:19:56.622Z,10.90
2019-04-05T15:22:28.357Z,12.07
2019-04-05T15:25:00.998Z,11.27
2019-04-05T15:27:32.521Z,11.80
2019-04-05T15:30:04.075Z,12.30
2019-04-05T15:32:36.192Z,11.43
2019-04-05T15:35:08.000Z,11.57
2019-04-05T15:37:39.448Z,12.20
2019-04-05T15:40:12.209Z,12.20
2019-04-05T15:42:43.654Z,10.97
2019-04-05T15:45:16.608Z,11.20
2019-04-05T15:47:48.106Z,11.43
2019-04-05T15:50:21.981Z,11.40
2019-04-05T15:52:53.567Z,11.70
2019-04-05T15:55:25.413Z,12.37
2019-04-05T15:57:56.887Z,12.40
2019-04-05T16:00:45.137Z,13.00
2019-04-05T16:03:16.745Z,12.13
2019-04-05T16:05:48.372Z,11.30
2019-04-05T16:08:19.990Z,11.97
2019-04-05T16:10:51.525Z,11.20
2019-04-05T16:13:22.965Z,12.50
2019-04-05T16:15:54.529Z,12.03
2019-04-05T16:18:29.245Z,12.30
2019-04-05T16:21:02.869Z,12.33
2019-04-05T16:23:34.507Z,13.13
2019-04-05T16:26:06.141Z,12.73
2019-04-05T16:28:40.784Z,11.93
2019-04-05T16:31:11.095Z,13.20
2019-04-05T16:33:42.837Z,12.80
2019-04-05T16:36:17.013Z,13.57
2019-04-05T16:38:48.524Z,13.30
2019-04-05T16:41:20.025Z,12.63
2019-04-05T16:43:51.406Z,12.97
2019-04-05T16:46:22.799Z,13.60
2019-04-05T16:48:54.132Z,13.20
2019-04-05T16:51:25.629Z,12.70
2019-04-05T16:54:00.795Z,13.57
2019-04-05T16:56:34.167Z,13.67
2019-04-05T16:59:05.759Z,13.93
2019-04-05T17:01:37.324Z,14.97
2019-04-05T17:04:08.818Z,13.57
2019-04-05T17:06:40.266Z,13.97
2019-04-05T17:09:11.862Z,13.57
2019-04-05T17:11:43.432Z,13.87
2019-04-05T17:14:14.702Z,14.20
2019-04-05T17:16:46.327Z,13.53
2019-04-05T17:19:17.758Z,14.60
2019-04-05T17:21:49.528Z,13.83
2019-04-05T17:24:21.098Z,14.47
2019-04-05T17:26:54.395Z,13.93
2019-04-05T17:29:26.278Z,12.80
2019-04-05T17:31:57.834Z,13.63
2019-04-05T17:34:29.385Z,14.83
2019-04-05T17:37:00.946Z,14.30
2019-04-05T17:39:32.360Z,12.97
2019-04-05T17:42:04.106Z,15.10
2019-04-05T17:44:35.510Z,13.47
2019-04-05T17:47:07.302Z,13.90
2019-04-05T17:49:38.737Z,13.43
2019-04-05T17:52:10.401Z,13.93
2019-04-05T17:54:41.965Z,14.87
2019-04-05T17:57:13.429Z,14.87
2019-04-05T17:59:44.907Z,14.00
2019-04-05T18:02:16.318Z,15.63
2019-04-05T18:04:47.924Z,15.27
2019-04-05T18:07:19.651Z,17.43
2019-04-05T18:09:50.946Z,22.63
2019-04-05T18:12:22.351Z,35.03
2019-04-05T18:14:53.806Z,37.57
2019-04-05T18:17:25.400Z,43.67
2019-04-05T18:19:56.928Z,44.00
2019-04-05T18:22:32.773Z,45.87
2019-04-05T18:25:04.875Z,43.23
2019-04-05T18:27:36.380Z,45.03
2019-04-05T18:30:08.181Z,43.37
2019-04-05T18:32:39.724Z,42.93
2019-04-05T18:35:11.363Z,41.73
2019-04-05T18:37:42.810Z,44.40
2019-04-05T18:40:14.307Z,42.60
2019-04-05T18:42:45.693Z,43.90
2019-04-05T18:45:17.386Z,47.90
2019-04-05T18:47:48.868Z,48.00
2019-04-05T18:50:20.315Z,45.83
2019-04-05T18:52:51.721Z,48.03
2019-04-05T18:55:23.368Z,44.27
2019-04-05T18:57:54.854Z,47.00
2019-04-05T19:00:26.212Z,44.50
2019-04-05T19:02:57.693Z,47.20
2019-04-05T19:05:30.066Z,50.30
2019-04-05T19:08:01.485Z,48.33
2019-04-05T19:10:37.132Z,48.00
2019-04-05T19:13:06.197Z,45.23
2019-04-05T19:15:37.873Z,47.67
2019-04-05T19:18:09.264Z,44.87
2019-04-05T19:20:40.667Z,45.13
2019-04-05T19:23:12.502Z,43.07
2019-04-05T19:25:46.497Z,46.90
2019-04-05T19:28:17.121Z,44.67
2019-04-05T19:48:40.743Z,45.20
2019-04-05T19:51:12.127Z,42.63
2019-04-05T19:53:43.541Z,43.40
2019-04-05T19:56:14.929Z,43.80
2019-04-05T19:58:46.389Z,44.87
2019-04-05T20:01:17.802Z,45.03
2019-04-05T20:03:49.349Z,42.93
2019-04-05T20:06:20.989Z,42.33
2019-04-05T20:08:52.524Z,45.77
2019-04-05T20:11:23.841Z,44.97
2019-04-05T20:13:55.232Z,42.53
2019-04-05T20:16:28.559Z,42.27
2019-04-05T20:19:00.487Z,42.60
2019-04-05T20:21:32.111Z,43.30
2019-04-05T20:24:13.755Z,42.27
2019-04-05T20:26:37.904Z,46.57
2019-04-05T20:29:09.657Z,42.53
2019-04-05T20:31:41.077Z,45.47
2019-04-05T20:34:12.582Z,41.73
2019-04-05T20:36:44.061Z,40.90
2019-04-05T20:39:15.428Z,45.60
2019-04-05T20:41:46.824Z,41.60
2019-04-05T20:44:18.204Z,43.73
2019-04-05T20:46:49.663Z,42.00
2019-04-05T20:49:21.065Z,44.33
2019-04-05T20:51:52.552Z,42.53
2019-04-05T20:54:24.904Z,44.70
2019-04-05T20:56:56.545Z,40.70
2019-04-05T20:59:28.101Z,40.43
2019-04-05T21:02:02.093Z,38.47
2019-04-05T21:04:34.177Z,41.77
2019-04-05T21:07:05.648Z,39.77
2019-04-05T21:09:37.196Z,38.43
2019-04-05T21:12:08.747Z,35.23
2019-04-05T21:14:40.379Z,34.17
2019-04-05T21:17:11.817Z,32.70
2019-04-05T21:19:43.252Z,36.37
2019-04-05T21:22:14.882Z,39.17
2019-04-05T21:24:48.172Z,33.87
2019-04-05T21:27:19.793Z,42.70
2019-04-05T21:29:51.369Z,40.67
2019-04-05T21:32:24.540Z,43.53
2019-04-05T21:34:56.024Z,41.23
2019-04-05T21:37:27.556Z,42.33
2019-04-05T21:39:59.007Z,42.93
2019-04-05T21:42:30.440Z,40.27
2019-04-05T21:45:02.326Z,36.40
2019-04-05T21:47:34.815Z,35.33
2019-04-05T21:50:06.563Z,32.87
2019-04-05T21:52:37.961Z,34.93
2019-04-05T21:55:09.579Z,35.07
2019-04-05T21:57:40.966Z,37.27
2019-04-05T22:00:20.473Z,36.43
2019-04-05T22:02:53.643Z,32.77
2019-04-05T22:05:25.188Z,35.37
2019-04-05T22:07:56.728Z,34.10
2019-04-05T22:10:28.392Z,34.27
2019-04-05T22:12:59.867Z,35.30
2019-04-05T22:15:31.773Z,34.67
2019-04-05T22:18:03.301Z,36.03
2019-04-05T22:20:34.881Z,35.20
2019-04-05T22:23:06.332Z,33.00
2019-04-05T22:25:38.077Z,32.87
2019-04-05T22:28:09.610Z,37.63
2019-04-05T22:30:41.079Z,37.47
2019-04-05T22:33:12.579Z,37.63
2019-04-05T22:35:44.534Z,35.60
2019-04-05T22:38:16.099Z,37.27
2019-04-05T22:40:47.503Z,37.97
2019-04-05T22:43:18.821Z,35.43
2019-04-05T22:45:50.521Z,39.77
2019-04-05T22:48:21.990Z,37.63
2019-04-05T22:50:53.454Z,40.27
2019-04-05T22:53:24.986Z,38.73
2019-04-05T22:55:56.448Z,38.97
2019-04-05T22:58:27.792Z,40.70
2019-04-05T23:00:59.269Z,38.63
2019-04-05T23:03:30.694Z,36.00
2019-04-05T23:06:02.235Z,34.47
2019-04-05T23:08:33.634Z,37.70
2019-04-05T23:11:05.281Z,37.30
2019-04-05T23:13:36.838Z,41.57
2019-04-05T23:16:08.634Z,41.63
2019-04-05T23:18:40.030Z,41.97
2019-04-05T23:21:11.462Z,42.57
2019-04-05T23:23:43.081Z,41.57
2019-04-05T23:26:15.255Z,41.77
2019-04-05T23:28:47.744Z,41.23
2019-04-05T23:31:21.467Z,37.77
2019-04-05T23:33:57.328Z,38.63
2019-04-05T23:36:28.796Z,38.87
2019-04-05T23:39:00.371Z,39.87
2019-04-05T23:41:31.822Z,39.10
2019-04-05T23:46:43.403Z,41.53
2019-04-05T23:49:14.884Z,41.03
2019-04-05T23:51:46.369Z,36.33
2019-04-05T23:54:18.031Z,39.63
2019-04-05T23:56:49.554Z,39.40
2019-04-05T23:59:21.045Z,39.03
